Disclaimer

Please do not use the information listed here in-flight or in-navigation, as they are not provided to us by the airports but are provided by volunteers, so they might be outdated.

Search


Regions


Airport information page

Radio informations:
Brisbane Center - 120.3 MHz
Common traffic adv. frequency (CTAF) - 126.5 MHz

Airport informations:
Latitude: 10° 35' 11.00" S
Longitude: 142° 17' 24.00" E
Elevation: 43 feet - 13 meters
Operating hours: N/A
Operating agency: Civil government, landing fees and diplomatic clearance may be required
Timezone: UTC+10
Fuel: Jet A1+, Jet A1 with icing inhibitor.

100/130 MIL Spec, low lead, aviation gasoline (BLUE)

Runway information:
08/26 - 4557 x 98 feet< - >1389 x 30 meters
14/32 - 4052 x 75 feet< - >1235 x 23 meters

Recent METARs:
YHID 181500Z AUTO 25002KT 9999 // NCD 28/24 Q1009
YHID 181500Z AUTO 25002KT 9999 // NCD 28/24 Q1009
YHID 181500Z AUTO 25002KT 9999 // NCD 28/24 Q1009

Airport on the map: